sensor_id;sensor_type;location;lat;lon;timestamp;P1;durP1;ratioP1;P2;durP2;ratioP2
21507;SDS011;10915;54.352;9.074;2022-09-02T00:00:57;7.20;;;4.90;;
21507;SDS011;10915;54.352;9.074;2022-09-02T00:03:30;5.27;;;4.57;;
21507;SDS011;10915;54.352;9.074;2022-09-02T00:05:58;6.50;;;4.83;;
21507;SDS011;10915;54.352;9.074;2022-09-02T00:08:25;9.40;;;4.87;;
21507;SDS011;10915;54.352;9.074;2022-09-02T00:10:51;5.93;;;4.70;;
21507;SDS011;10915;54.352;9.074;2022-09-02T00:13:17;7.00;;;4.60;;
21507;SDS011;10915;54.352;9.074;2022-09-02T00:15:44;5.70;;;4.53;;
21507;SDS011;10915;54.352;9.074;2022-09-02T00:18:11;5.40;;;4.33;;
21507;SDS011;10915;54.352;9.074;2022-09-02T00:20:38;6.20;;;4.50;;
21507;SDS011;10915;54.352;9.074;2022-09-02T00:23:09;5.40;;;4.63;;
21507;SDS011;10915;54.352;9.074;2022-09-02T00:25:36;5.03;;;4.10;;
21507;SDS011;10915;54.352;9.074;2022-09-02T00:28:03;5.33;;;4.50;;
21507;SDS011;10915;54.352;9.074;2022-09-02T00:30:30;5.80;;;4.70;;
21507;SDS011;10915;54.352;9.074;2022-09-02T00:32:56;5.47;;;4.40;;
21507;SDS011;10915;54.352;9.074;2022-09-02T00:35:23;5.07;;;4.20;;
21507;SDS011;10915;54.352;9.074;2022-09-02T00:37:50;5.73;;;4.73;;
21507;SDS011;10915;54.352;9.074;2022-09-02T00:40:16;6.03;;;4.33;;
21507;SDS011;10915;54.352;9.074;2022-09-02T00:42:42;5.17;;;4.20;;
21507;SDS011;10915;54.352;9.074;2022-09-02T00:45:09;7.37;;;4.73;;
21507;SDS011;10915;54.352;9.074;2022-09-02T00:47:35;4.73;;;3.80;;
21507;SDS011;10915;54.352;9.074;2022-09-02T00:50:03;5.60;;;4.20;;
21507;SDS011;10915;54.352;9.074;2022-09-02T00:52:38;5.73;;;4.73;;
21507;SDS011;10915;54.352;9.074;2022-09-02T00:57:37;5.73;;;4.53;;
21507;SDS011;10915;54.352;9.074;2022-09-02T01:02:36;8.43;;;4.50;;
21507;SDS011;10915;54.352;9.074;2022-09-02T01:05:04;6.57;;;4.00;;
21507;SDS011;10915;54.352;9.074;2022-09-02T01:07:33;6.43;;;4.30;;
21507;SDS011;10915;54.352;9.074;2022-09-02T01:10:03;4.50;;;3.60;;
21507;SDS011;10915;54.352;9.074;2022-09-02T01:12:31;6.03;;;4.20;;
21507;SDS011;10915;54.352;9.074;2022-09-02T01:14:58;5.40;;;4.10;;
21507;SDS011;10915;54.352;9.074;2022-09-02T01:17:24;5.13;;;3.77;;
21507;SDS011;10915;54.352;9.074;2022-09-02T01:19:52;4.50;;;3.70;;
21507;SDS011;10915;54.352;9.074;2022-09-02T01:22:24;5.67;;;3.60;;
21507;SDS011;10915;54.352;9.074;2022-09-02T01:24:53;7.60;;;3.67;;
21507;SDS011;10915;54.352;9.074;2022-09-02T01:27:22;6.83;;;4.07;;
21507;SDS011;10915;54.352;9.074;2022-09-02T01:29:52;7.07;;;3.77;;
21507;SDS011;10915;54.352;9.074;2022-09-02T01:32:20;4.47;;;3.80;;
21507;SDS011;10915;54.352;9.074;2022-09-02T01:34:47;4.83;;;3.70;;
21507;SDS011;10915;54.352;9.074;2022-09-02T01:37:12;4.27;;;3.87;;
21507;SDS011;10915;54.352;9.074;2022-09-02T01:39:39;5.37;;;3.70;;
21507;SDS011;10915;54.352;9.074;2022-09-02T01:42:05;4.60;;;3.60;;
21507;SDS011;10915;54.352;9.074;2022-09-02T01:44:31;4.60;;;3.73;;
21507;SDS011;10915;54.352;9.074;2022-09-02T01:46:59;6.23;;;3.60;;
21507;SDS011;10915;54.352;9.074;2022-09-02T01:49:24;5.37;;;3.67;;
21507;SDS011;10915;54.352;9.074;2022-09-02T01:51:53;4.13;;;3.30;;
21507;SDS011;10915;54.352;9.074;2022-09-02T01:54:19;5.50;;;3.30;;
21507;SDS011;10915;54.352;9.074;2022-09-02T01:56:45;4.23;;;3.47;;
21507;SDS011;10915;54.352;9.074;2022-09-02T01:59:11;3.97;;;3.40;;
21507;SDS011;10915;54.352;9.074;2022-09-02T02:01:42;3.70;;;2.97;;
21507;SDS011;10915;54.352;9.074;2022-09-02T02:04:09;4.33;;;3.53;;
21507;SDS011;10915;54.352;9.074;2022-09-02T02:06:38;4.33;;;3.17;;
21507;SDS011;10915;54.352;9.074;2022-09-02T02:09:06;5.57;;;3.30;;
21507;SDS011;10915;54.352;9.074;2022-09-02T02:11:32;3.93;;;3.30;;
21507;SDS011;10915;54.352;9.074;2022-09-02T02:13:58;5.87;;;4.00;;
21507;SDS011;10915;54.352;9.074;2022-09-02T02:16:23;5.23;;;3.90;;
21507;SDS011;10915;54.352;9.074;2022-09-02T02:18:49;5.70;;;4.00;;
21507;SDS011;10915;54.352;9.074;2022-09-02T02:21:16;7.00;;;3.73;;
21507;SDS011;10915;54.352;9.074;2022-09-02T02:23:41;6.00;;;3.90;;
21507;SDS011;10915;54.352;9.074;2022-09-02T02:26:07;8.17;;;4.13;;
21507;SDS011;10915;54.352;9.074;2022-09-02T02:28:33;6.03;;;4.13;;
21507;SDS011;10915;54.352;9.074;2022-09-02T02:31:00;4.03;;;3.40;;
21507;SDS011;10915;54.352;9.074;2022-09-02T02:33:26;6.17;;;4.33;;
21507;SDS011;10915;54.352;9.074;2022-09-02T02:35:55;6.23;;;4.13;;
21507;SDS011;10915;54.352;9.074;2022-09-02T02:38:21;5.00;;;3.90;;
21507;SDS011;10915;54.352;9.074;2022-09-02T02:40:47;5.50;;;4.00;;
21507;SDS011;10915;54.352;9.074;2022-09-02T02:43:14;5.43;;;4.20;;
21507;SDS011;10915;54.352;9.074;2022-09-02T02:45:40;7.13;;;4.17;;
21507;SDS011;10915;54.352;9.074;2022-09-02T02:48:05;4.93;;;3.97;;
21507;SDS011;10915;54.352;9.074;2022-09-02T02:50:31;6.37;;;3.93;;
21507;SDS011;10915;54.352;9.074;2022-09-02T02:52:57;6.63;;;3.63;;
21507;SDS011;10915;54.352;9.074;2022-09-02T02:55:26;6.43;;;4.80;;
21507;SDS011;10915;54.352;9.074;2022-09-02T02:57:52;5.43;;;4.43;;
21507;SDS011;10915;54.352;9.074;2022-09-02T03:00:22;5.50;;;4.27;;
21507;SDS011;10915;54.352;9.074;2022-09-02T03:02:55;4.97;;;4.13;;
21507;SDS011;10915;54.352;9.074;2022-09-02T03:05:23;6.13;;;4.37;;
21507;SDS011;10915;54.352;9.074;2022-09-02T03:07:49;6.17;;;5.03;;
21507;SDS011;10915;54.352;9.074;2022-09-02T03:10:16;7.23;;;4.57;;
21507;SDS011;10915;54.352;9.074;2022-09-02T03:12:42;5.57;;;4.50;;
21507;SDS011;10915;54.352;9.074;2022-09-02T03:15:12;6.57;;;5.00;;
21507;SDS011;10915;54.352;9.074;2022-09-02T03:17:41;8.00;;;5.00;;
21507;SDS011;10915;54.352;9.074;2022-09-02T03:20:07;7.63;;;5.03;;
21507;SDS011;10915;54.352;9.074;2022-09-02T03:22:34;7.07;;;4.83;;
21507;SDS011;10915;54.352;9.074;2022-09-02T03:25:03;5.27;;;4.60;;
21507;SDS011;10915;54.352;9.074;2022-09-02T03:27:30;8.30;;;5.20;;
21507;SDS011;10915;54.352;9.074;2022-09-02T03:29:55;14.17;;;6.37;;
21507;SDS011;10915;54.352;9.074;2022-09-02T03:32:21;4.77;;;4.27;;
21507;SDS011;10915;54.352;9.074;2022-09-02T03:34:46;6.70;;;4.70;;
21507;SDS011;10915;54.352;9.074;2022-09-02T03:37:12;6.57;;;4.90;;
21507;SDS011;10915;54.352;9.074;2022-09-02T03:39:38;5.73;;;4.67;;
21507;SDS011;10915;54.352;9.074;2022-09-02T03:42:05;6.10;;;4.80;;
21507;SDS011;10915;54.352;9.074;2022-09-02T03:44:31;6.37;;;4.30;;
21507;SDS011;10915;54.352;9.074;2022-09-02T03:46:58;6.97;;;4.93;;
21507;SDS011;10915;54.352;9.074;2022-09-02T03:49:24;7.47;;;4.87;;
21507;SDS011;10915;54.352;9.074;2022-09-02T03:51:51;6.60;;;4.77;;
21507;SDS011;10915;54.352;9.074;2022-09-02T03:54:17;7.97;;;4.97;;
21507;SDS011;10915;54.352;9.074;2022-09-02T03:56:43;10.33;;;5.07;;
21507;SDS011;10915;54.352;9.074;2022-09-02T03:59:09;6.60;;;4.50;;
21507;SDS011;10915;54.352;9.074;2022-09-02T04:01:35;5.87;;;4.83;;
21507;SDS011;10915;54.352;9.074;2022-09-02T04:04:02;6.47;;;4.43;;
21507;SDS011;10915;54.352;9.074;2022-09-02T04:06:31;5.57;;;4.30;;
21507;SDS011;10915;54.352;9.074;2022-09-02T04:08:57;6.93;;;4.13;;
21507;SDS011;10915;54.352;9.074;2022-09-02T04:11:22;7.43;;;4.20;;
21507;SDS011;10915;54.352;9.074;2022-09-02T04:13:49;5.63;;;4.20;;
21507;SDS011;10915;54.352;9.074;2022-09-02T04:16:20;6.27;;;4.17;;
21507;SDS011;10915;54.352;9.074;2022-09-02T04:18:56;7.10;;;4.30;;
21507;SDS011;10915;54.352;9.074;2022-09-02T04:21:23;6.27;;;4.00;;
21507;SDS011;10915;54.352;9.074;2022-09-02T04:23:49;5.67;;;4.10;;
21507;SDS011;10915;54.352;9.074;2022-09-02T04:26:16;8.60;;;4.30;;
21507;SDS011;10915;54.352;9.074;2022-09-02T04:28:44;4.97;;;4.20;;
21507;SDS011;10915;54.352;9.074;2022-09-02T04:31:11;6.90;;;3.90;;
21507;SDS011;10915;54.352;9.074;2022-09-02T04:33:38;6.20;;;4.00;;
21507;SDS011;10915;54.352;9.074;2022-09-02T04:36:09;4.93;;;4.03;;
21507;SDS011;10915;54.352;9.074;2022-09-02T04:38:38;5.40;;;3.80;;
21507;SDS011;10915;54.352;9.074;2022-09-02T04:41:06;8.27;;;4.17;;
21507;SDS011;10915;54.352;9.074;2022-09-02T04:43:33;9.30;;;3.80;;
21507;SDS011;10915;54.352;9.074;2022-09-02T04:45:59;6.13;;;4.00;;
21507;SDS011;10915;54.352;9.074;2022-09-02T04:48:27;6.43;;;4.10;;
21507;SDS011;10915;54.352;9.074;2022-09-02T04:50:53;6.93;;;4.00;;
21507;SDS011;10915;54.352;9.074;2022-09-02T04:53:19;7.43;;;4.10;;
21507;SDS011;10915;54.352;9.074;2022-09-02T04:55:44;6.50;;;4.37;;
21507;SDS011;10915;54.352;9.074;2022-09-02T04:58:10;6.57;;;4.73;;
21507;SDS011;10915;54.352;9.074;2022-09-02T05:00:36;5.97;;;4.07;;
21507;SDS011;10915;54.352;9.074;2022-09-02T05:03:03;6.67;;;4.20;;
21507;SDS011;10915;54.352;9.074;2022-09-02T05:05:30;6.07;;;4.43;;
21507;SDS011;10915;54.352;9.074;2022-09-02T05:07:56;5.03;;;3.90;;
21507;SDS011;10915;54.352;9.074;2022-09-02T05:10:22;7.37;;;4.10;;
21507;SDS011;10915;54.352;9.074;2022-09-02T05:12:48;5.33;;;4.27;;
21507;SDS011;10915;54.352;9.074;2022-09-02T05:15:14;6.47;;;4.13;;
21507;SDS011;10915;54.352;9.074;2022-09-02T05:17:40;8.67;;;4.37;;
21507;SDS011;10915;54.352;9.074;2022-09-02T05:20:07;5.20;;;3.80;;
21507;SDS011;10915;54.352;9.074;2022-09-02T05:22:33;8.50;;;3.93;;
21507;SDS011;10915;54.352;9.074;2022-09-02T05:25:00;6.63;;;4.23;;
21507;SDS011;10915;54.352;9.074;2022-09-02T05:27:26;8.50;;;4.23;;
21507;SDS011;10915;54.352;9.074;2022-09-02T05:29:55;9.67;;;3.90;;
21507;SDS011;10915;54.352;9.074;2022-09-02T05:32:23;7.47;;;4.30;;
21507;SDS011;10915;54.352;9.074;2022-09-02T05:34:51;8.77;;;4.30;;
21507;SDS011;10915;54.352;9.074;2022-09-02T05:37:17;8.00;;;4.30;;
21507;SDS011;10915;54.352;9.074;2022-09-02T05:39:43;5.70;;;4.50;;
21507;SDS011;10915;54.352;9.074;2022-09-02T05:42:09;6.10;;;4.70;;
21507;SDS011;10915;54.352;9.074;2022-09-02T05:44:35;8.07;;;5.20;;
21507;SDS011;10915;54.352;9.074;2022-09-02T05:47:02;10.10;;;5.20;;
21507;SDS011;10915;54.352;9.074;2022-09-02T05:49:28;9.67;;;5.60;;
21507;SDS011;10915;54.352;9.074;2022-09-02T05:51:55;8.67;;;4.93;;
21507;SDS011;10915;54.352;9.074;2022-09-02T05:54:28;6.73;;;4.77;;
21507;SDS011;10915;54.352;9.074;2022-09-02T05:57:03;6.70;;;4.47;;
21507;SDS011;10915;54.352;9.074;2022-09-02T05:59:35;5.27;;;4.23;;
21507;SDS011;10915;54.352;9.074;2022-09-02T06:02:04;6.13;;;4.10;;
21507;SDS011;10915;54.352;9.074;2022-09-02T06:04:30;6.07;;;4.50;;
21507;SDS011;10915;54.352;9.074;2022-09-02T06:06:56;9.77;;;4.70;;
21507;SDS011;10915;54.352;9.074;2022-09-02T06:09:22;13.13;;;4.57;;
21507;SDS011;10915;54.352;9.074;2022-09-02T06:11:49;6.23;;;4.47;;
21507;SDS011;10915;54.352;9.074;2022-09-02T06:14:16;6.57;;;3.90;;
21507;SDS011;10915;54.352;9.074;2022-09-02T06:16:48;5.83;;;3.73;;
21507;SDS011;10915;54.352;9.074;2022-09-02T06:19:15;6.17;;;3.70;;
21507;SDS011;10915;54.352;9.074;2022-09-02T06:21:41;6.63;;;3.87;;
21507;SDS011;10915;54.352;9.074;2022-09-02T06:24:07;5.30;;;3.70;;
21507;SDS011;10915;54.352;9.074;2022-09-02T06:26:35;5.87;;;3.20;;
21507;SDS011;10915;54.352;9.074;2022-09-02T06:29:03;5.47;;;3.30;;
21507;SDS011;10915;54.352;9.074;2022-09-02T06:31:30;6.30;;;2.80;;
21507;SDS011;10915;54.352;9.074;2022-09-02T06:33:56;3.07;;;2.27;;
21507;SDS011;10915;54.352;9.074;2022-09-02T06:36:23;4.47;;;2.63;;
21507;SDS011;10915;54.352;9.074;2022-09-02T06:38:52;3.50;;;2.50;;
21507;SDS011;10915;54.352;9.074;2022-09-02T06:41:21;5.17;;;2.57;;
21507;SDS011;10915;54.352;9.074;2022-09-02T06:43:50;6.77;;;3.40;;
21507;SDS011;10915;54.352;9.074;2022-09-02T06:46:21;3.90;;;2.60;;
21507;SDS011;10915;54.352;9.074;2022-09-02T06:48:48;3.57;;;2.47;;
21507;SDS011;10915;54.352;9.074;2022-09-02T06:51:15;3.30;;;2.50;;
21507;SDS011;10915;54.352;9.074;2022-09-02T06:53:48;5.63;;;2.60;;
21507;SDS011;10915;54.352;9.074;2022-09-02T06:56:14;4.03;;;2.43;;
21507;SDS011;10915;54.352;9.074;2022-09-02T06:58:40;4.67;;;2.57;;
21507;SDS011;10915;54.352;9.074;2022-09-02T07:01:06;3.00;;;2.33;;
21507;SDS011;10915;54.352;9.074;2022-09-02T07:03:32;5.50;;;2.60;;
21507;SDS011;10915;54.352;9.074;2022-09-02T07:06:17;3.70;;;2.30;;
21507;SDS011;10915;54.352;9.074;2022-09-02T07:08:43;3.97;;;2.23;;
21507;SDS011;10915;54.352;9.074;2022-09-02T07:11:17;2.80;;;2.27;;
21507;SDS011;10915;54.352;9.074;2022-09-02T07:13:47;4.60;;;2.40;;
21507;SDS011;10915;54.352;9.074;2022-09-02T07:16:13;3.23;;;2.60;;
21507;SDS011;10915;54.352;9.074;2022-09-02T07:18:41;3.60;;;2.10;;
21507;SDS011;10915;54.352;9.074;2022-09-02T07:21:08;6.53;;;2.60;;
21507;SDS011;10915;54.352;9.074;2022-09-02T07:23:34;3.83;;;2.03;;
21507;SDS011;10915;54.352;9.074;2022-09-02T07:26:00;3.37;;;2.30;;
21507;SDS011;10915;54.352;9.074;2022-09-02T07:28:26;2.43;;;2.07;;
21507;SDS011;10915;54.352;9.074;2022-09-02T07:30:52;2.97;;;1.93;;
21507;SDS011;10915;54.352;9.074;2022-09-02T07:33:19;5.97;;;2.10;;
21507;SDS011;10915;54.352;9.074;2022-09-02T07:35:48;3.70;;;2.20;;
21507;SDS011;10915;54.352;9.074;2022-09-02T07:38:16;3.40;;;1.80;;
21507;SDS011;10915;54.352;9.074;2022-09-02T07:40:42;5.17;;;2.20;;
21507;SDS011;10915;54.352;9.074;2022-09-02T07:43:08;3.17;;;1.87;;
21507;SDS011;10915;54.352;9.074;2022-09-02T07:45:35;3.37;;;2.07;;
21507;SDS011;10915;54.352;9.074;2022-09-02T07:48:02;4.37;;;1.80;;
21507;SDS011;10915;54.352;9.074;2022-09-02T07:50:33;4.00;;;1.90;;
21507;SDS011;10915;54.352;9.074;2022-09-02T07:53:00;2.50;;;1.67;;
21507;SDS011;10915;54.352;9.074;2022-09-02T07:55:30;3.60;;;1.73;;
21507;SDS011;10915;54.352;9.074;2022-09-02T07:57:56;1.37;;;1.20;;
21507;SDS011;10915;54.352;9.074;2022-09-02T08:00:22;2.27;;;1.50;;
21507;SDS011;10915;54.352;9.074;2022-09-02T08:02:51;4.47;;;1.57;;
21507;SDS011;10915;54.352;9.074;2022-09-02T08:05:17;3.23;;;1.67;;
21507;SDS011;10915;54.352;9.074;2022-09-02T08:07:43;4.63;;;1.50;;
21507;SDS011;10915;54.352;9.074;2022-09-02T08:10:09;2.13;;;1.30;;
21507;SDS011;10915;54.352;9.074;2022-09-02T08:12:37;1.93;;;0.97;;
21507;SDS011;10915;54.352;9.074;2022-09-02T08:15:04;3.50;;;1.60;;
21507;SDS011;10915;54.352;9.074;2022-09-02T08:17:31;1.00;;;0.70;;
21507;SDS011;10915;54.352;9.074;2022-09-02T08:19:57;3.07;;;1.00;;
21507;SDS011;10915;54.352;9.074;2022-09-02T08:22:22;5.27;;;1.20;;
21507;SDS011;10915;54.352;9.074;2022-09-02T08:24:49;2.80;;;1.20;;
21507;SDS011;10915;54.352;9.074;2022-09-02T08:27:14;1.83;;;0.77;;
21507;SDS011;10915;54.352;9.074;2022-09-02T08:29:40;2.00;;;0.83;;
21507;SDS011;10915;54.352;9.074;2022-09-02T08:32:06;2.53;;;0.80;;
21507;SDS011;10915;54.352;9.074;2022-09-02T08:34:32;3.27;;;0.63;;
21507;SDS011;10915;54.352;9.074;2022-09-02T08:36:58;1.90;;;0.90;;
21507;SDS011;10915;54.352;9.074;2022-09-02T08:39:23;2.90;;;0.90;;
21507;SDS011;10915;54.352;9.074;2022-09-02T08:44:35;3.30;;;1.00;;
21507;SDS011;10915;54.352;9.074;2022-09-02T08:47:02;2.20;;;0.77;;
21507;SDS011;10915;54.352;9.074;2022-09-02T08:49:54;2.10;;;0.97;;
21507;SDS011;10915;54.352;9.074;2022-09-02T08:55:31;1.03;;;0.90;;
21507;SDS011;10915;54.352;9.074;2022-09-02T08:58:02;1.57;;;0.57;;
21507;SDS011;10915;54.352;9.074;2022-09-02T09:00:29;1.43;;;0.90;;
21507;SDS011;10915;54.352;9.074;2022-09-02T09:03:22;1.10;;;0.63;;
21507;SDS011;10915;54.352;9.074;2022-09-02T09:05:58;3.30;;;0.87;;
21507;SDS011;10915;54.352;9.074;2022-09-02T09:08:46;2.50;;;0.80;;
21507;SDS011;10915;54.352;9.074;2022-09-02T09:12:06;1.33;;;0.80;;
21507;SDS011;10915;54.352;9.074;2022-09-02T09:17:44;0.60;;;0.53;;
21507;SDS011;10915;54.352;9.074;2022-09-02T09:20:24;2.03;;;0.60;;
21507;SDS011;10915;54.352;9.074;2022-09-02T09:22:56;3.40;;;0.70;;
21507;SDS011;10915;54.352;9.074;2022-09-02T09:25:24;3.87;;;0.63;;
21507;SDS011;10915;54.352;9.074;2022-09-02T09:28:00;2.93;;;0.73;;
21507;SDS011;10915;54.352;9.074;2022-09-02T09:30:27;0.37;;;0.37;;
21507;SDS011;10915;54.352;9.074;2022-09-02T09:32:57;1.10;;;0.70;;
21507;SDS011;10915;54.352;9.074;2022-09-02T09:35:24;1.77;;;0.47;;
21507;SDS011;10915;54.352;9.074;2022-09-02T09:38:11;0.90;;;0.40;;
21507;SDS011;10915;54.352;9.074;2022-09-02T09:40:38;1.17;;;0.50;;
21507;SDS011;10915;54.352;9.074;2022-09-02T09:50:37;0.53;;;0.43;;
21507;SDS011;10915;54.352;9.074;2022-09-02T09:53:12;1.67;;;0.73;;
21507;SDS011;10915;54.352;9.074;2022-09-02T09:58:23;1.93;;;0.50;;
21507;SDS011;10915;54.352;9.074;2022-09-02T10:00:56;2.63;;;0.50;;
21507;SDS011;10915;54.352;9.074;2022-09-02T10:03:27;0.63;;;0.50;;
21507;SDS011;10915;54.352;9.074;2022-09-02T10:05:55;0.87;;;0.50;;
21507;SDS011;10915;54.352;9.074;2022-09-02T10:08:26;2.53;;;0.57;;
21507;SDS011;10915;54.352;9.074;2022-09-02T10:10:57;1.17;;;0.60;;
21507;SDS011;10915;54.352;9.074;2022-09-02T10:13:32;1.23;;;0.77;;
21507;SDS011;10915;54.352;9.074;2022-09-02T10:21:24;5.27;;;0.53;;
21507;SDS011;10915;54.352;9.074;2022-09-02T10:24:15;0.80;;;0.40;;
21507;SDS011;10915;54.352;9.074;2022-09-02T10:26:44;2.07;;;0.80;;
21507;SDS011;10915;54.352;9.074;2022-09-02T10:38:26;1.70;;;0.63;;
21507;SDS011;10915;54.352;9.074;2022-09-02T10:52:25;2.27;;;1.00;;
21507;SDS011;10915;54.352;9.074;2022-09-02T10:55:18;0.73;;;0.53;;
21507;SDS011;10915;54.352;9.074;2022-09-02T10:58:13;2.50;;;0.40;;
21507;SDS011;10915;54.352;9.074;2022-09-02T11:00:47;2.80;;;0.43;;
21507;SDS011;10915;54.352;9.074;2022-09-02T11:03:23;1.83;;;0.60;;
21507;SDS011;10915;54.352;9.074;2022-09-02T11:13:52;0.80;;;0.50;;
21507;SDS011;10915;54.352;9.074;2022-09-02T11:16:27;0.97;;;0.40;;
21507;SDS011;10915;54.352;9.074;2022-09-02T11:24:34;2.73;;;0.30;;
21507;SDS011;10915;54.352;9.074;2022-09-02T11:27:20;5.83;;;0.60;;
21507;SDS011;10915;54.352;9.074;2022-09-02T11:30:10;1.50;;;0.60;;
21507;SDS011;10915;54.352;9.074;2022-09-02T11:32:55;0.60;;;0.30;;
21507;SDS011;10915;54.352;9.074;2022-09-02T11:35:35;3.33;;;0.57;;
21507;SDS011;10915;54.352;9.074;2022-09-02T11:43:48;1.60;;;0.40;;
21507;SDS011;10915;54.352;9.074;2022-09-02T11:54:20;2.47;;;0.70;;
21507;SDS011;10915;54.352;9.074;2022-09-02T11:56:48;0.83;;;0.50;;
21507;SDS011;10915;54.352;9.074;2022-09-02T11:59:21;0.30;;;0.30;;
21507;SDS011;10915;54.352;9.074;2022-09-02T12:02:07;0.30;;;0.30;;
21507;SDS011;10915;54.352;9.074;2022-09-02T12:04:33;2.73;;;0.50;;
21507;SDS011;10915;54.352;9.074;2022-09-02T12:17:34;0.47;;;0.37;;
21507;SDS011;10915;54.352;9.074;2022-09-02T12:20:09;1.00;;;0.43;;
21507;SDS011;10915;54.352;9.074;2022-09-02T12:22:54;1.47;;;0.63;;
21507;SDS011;10915;54.352;9.074;2022-09-02T12:27:53;1.03;;;0.30;;
21507;SDS011;10915;54.352;9.074;2022-09-02T12:33:30;0.23;;;0.23;;
21507;SDS011;10915;54.352;9.074;2022-09-02T12:35:57;0.50;;;0.30;;
21507;SDS011;10915;54.352;9.074;2022-09-02T12:38:30;0.77;;;0.40;;
21507;SDS011;10915;54.352;9.074;2022-09-02T12:43:33;3.13;;;0.43;;
21507;SDS011;10915;54.352;9.074;2022-09-02T12:52:00;3.77;;;0.60;;
21507;SDS011;10915;54.352;9.074;2022-09-02T12:57:03;2.37;;;0.50;;
21507;SDS011;10915;54.352;9.074;2022-09-02T12:59:32;0.80;;;0.40;;
21507;SDS011;10915;54.352;9.074;2022-09-02T13:08:00;1.33;;;0.50;;
21507;SDS011;10915;54.352;9.074;2022-09-02T13:16:41;0.87;;;0.47;;
21507;SDS011;10915;54.352;9.074;2022-09-02T13:33:13;1.03;;;0.50;;
21507;SDS011;10915;54.352;9.074;2022-09-02T13:35:39;4.40;;;0.70;;
21507;SDS011;10915;54.352;9.074;2022-09-02T13:38:12;0.50;;;0.40;;
21507;SDS011;10915;54.352;9.074;2022-09-02T13:40:38;0.90;;;0.43;;
21507;SDS011;10915;54.352;9.074;2022-09-02T13:45:51;2.77;;;0.50;;
21507;SDS011;10915;54.352;9.074;2022-09-02T13:48:20;3.17;;;0.50;;
21507;SDS011;10915;54.352;9.074;2022-09-02T13:50:55;1.27;;;0.43;;
21507;SDS011;10915;54.352;9.074;2022-09-02T13:53:33;0.50;;;0.40;;
21507;SDS011;10915;54.352;9.074;2022-09-02T13:56:07;0.83;;;0.20;;
21507;SDS011;10915;54.352;9.074;2022-09-02T13:58:36;0.60;;;0.30;;
21507;SDS011;10915;54.352;9.074;2022-09-02T14:03:56;0.70;;;0.50;;
21507;SDS011;10915;54.352;9.074;2022-09-02T14:06:30;3.23;;;0.60;;
21507;SDS011;10915;54.352;9.074;2022-09-02T14:09:03;1.70;;;0.40;;
21507;SDS011;10915;54.352;9.074;2022-09-02T14:11:37;0.37;;;0.30;;
21507;SDS011;10915;54.352;9.074;2022-09-02T14:14:05;1.10;;;0.40;;
21507;SDS011;10915;54.352;9.074;2022-09-02T14:16:33;2.60;;;0.33;;
21507;SDS011;10915;54.352;9.074;2022-09-02T14:21:56;1.57;;;0.50;;
21507;SDS011;10915;54.352;9.074;2022-09-02T14:24:44;2.40;;;0.30;;
21507;SDS011;10915;54.352;9.074;2022-09-02T14:27:15;0.80;;;0.50;;
21507;SDS011;10915;54.352;9.074;2022-09-02T14:29:43;1.07;;;0.50;;
21507;SDS011;10915;54.352;9.074;2022-09-02T14:32:14;0.43;;;0.33;;
21507;SDS011;10915;54.352;9.074;2022-09-02T14:35:36;0.90;;;0.47;;
21507;SDS011;10915;54.352;9.074;2022-09-02T14:37:51;0.57;;;0.30;;
21507;SDS011;10915;54.352;9.074;2022-09-02T14:40:38;0.63;;;0.47;;
21507;SDS011;10915;54.352;9.074;2022-09-02T14:43:13;2.23;;;0.50;;
21507;SDS011;10915;54.352;9.074;2022-09-02T14:45:42;1.30;;;0.80;;
21507;SDS011;10915;54.352;9.074;2022-09-02T14:48:17;1.90;;;0.60;;
21507;SDS011;10915;54.352;9.074;2022-09-02T14:50:44;1.90;;;0.60;;
21507;SDS011;10915;54.352;9.074;2022-09-02T14:53:10;1.03;;;0.63;;
21507;SDS011;10915;54.352;9.074;2022-09-02T14:55:47;2.10;;;0.50;;
21507;SDS011;10915;54.352;9.074;2022-09-02T14:58:17;1.00;;;0.50;;
21507;SDS011;10915;54.352;9.074;2022-09-02T15:00:47;0.87;;;0.63;;
21507;SDS011;10915;54.352;9.074;2022-09-02T15:03:16;0.80;;;0.40;;
21507;SDS011;10915;54.352;9.074;2022-09-02T15:05:42;1.63;;;0.53;;
21507;SDS011;10915;54.352;9.074;2022-09-02T15:08:08;0.73;;;0.50;;
21507;SDS011;10915;54.352;9.074;2022-09-02T15:10:35;0.93;;;0.73;;
21507;SDS011;10915;54.352;9.074;2022-09-02T15:13:02;0.90;;;0.57;;
21507;SDS011;10915;54.352;9.074;2022-09-02T15:15:28;1.30;;;0.57;;
21507;SDS011;10915;54.352;9.074;2022-09-02T15:17:54;1.37;;;0.60;;
21507;SDS011;10915;54.352;9.074;2022-09-02T15:20:20;2.30;;;0.63;;
21507;SDS011;10915;54.352;9.074;2022-09-02T15:22:46;2.93;;;0.70;;
21507;SDS011;10915;54.352;9.074;2022-09-02T15:25:12;1.23;;;0.50;;
21507;SDS011;10915;54.352;9.074;2022-09-02T15:27:38;3.23;;;0.50;;
21507;SDS011;10915;54.352;9.074;2022-09-02T15:30:05;0.93;;;0.50;;
21507;SDS011;10915;54.352;9.074;2022-09-02T15:32:33;6.50;;;0.77;;
21507;SDS011;10915;54.352;9.074;2022-09-02T15:34:59;2.70;;;0.70;;
21507;SDS011;10915;54.352;9.074;2022-09-02T15:37:25;2.33;;;0.60;;
21507;SDS011;10915;54.352;9.074;2022-09-02T15:39:51;1.33;;;0.67;;
21507;SDS011;10915;54.352;9.074;2022-09-02T15:42:17;3.07;;;0.60;;
21507;SDS011;10915;54.352;9.074;2022-09-02T15:44:43;1.10;;;0.60;;
21507;SDS011;10915;54.352;9.074;2022-09-02T15:47:10;1.00;;;0.50;;
21507;SDS011;10915;54.352;9.074;2022-09-02T15:49:35;2.50;;;0.60;;
21507;SDS011;10915;54.352;9.074;2022-09-02T15:52:01;3.90;;;0.60;;
21507;SDS011;10915;54.352;9.074;2022-09-02T15:54:27;1.83;;;0.50;;
21507;SDS011;10915;54.352;9.074;2022-09-02T15:56:55;1.27;;;0.60;;
21507;SDS011;10915;54.352;9.074;2022-09-02T15:59:22;2.90;;;0.97;;
21507;SDS011;10915;54.352;9.074;2022-09-02T16:01:53;3.07;;;0.50;;
21507;SDS011;10915;54.352;9.074;2022-09-02T16:04:20;0.50;;;0.43;;
21507;SDS011;10915;54.352;9.074;2022-09-02T16:06:47;1.90;;;0.60;;
21507;SDS011;10915;54.352;9.074;2022-09-02T16:09:15;3.10;;;0.83;;
21507;SDS011;10915;54.352;9.074;2022-09-02T16:11:48;1.60;;;0.60;;
21507;SDS011;10915;54.352;9.074;2022-09-02T16:14:16;1.17;;;0.50;;
21507;SDS011;10915;54.352;9.074;2022-09-02T16:16:42;0.80;;;0.60;;
21507;SDS011;10915;54.352;9.074;2022-09-02T16:19:09;1.20;;;0.53;;
21507;SDS011;10915;54.352;9.074;2022-09-02T16:21:36;1.47;;;0.60;;
21507;SDS011;10915;54.352;9.074;2022-09-02T16:24:08;1.17;;;0.50;;
21507;SDS011;10915;54.352;9.074;2022-09-02T16:26:34;2.07;;;0.70;;
21507;SDS011;10915;54.352;9.074;2022-09-02T16:29:02;1.10;;;0.67;;
21507;SDS011;10915;54.352;9.074;2022-09-02T16:31:37;6.23;;;1.07;;
21507;SDS011;10915;54.352;9.074;2022-09-02T16:34:08;2.57;;;0.50;;
21507;SDS011;10915;54.352;9.074;2022-09-02T16:36:37;2.20;;;0.50;;
21507;SDS011;10915;54.352;9.074;2022-09-02T16:39:04;3.47;;;0.83;;
21507;SDS011;10915;54.352;9.074;2022-09-02T16:41:35;2.63;;;0.80;;
21507;SDS011;10915;54.352;9.074;2022-09-02T16:44:10;3.80;;;0.77;;
21507;SDS011;10915;54.352;9.074;2022-09-02T16:46:37;3.87;;;0.80;;
21507;SDS011;10915;54.352;9.074;2022-09-02T16:49:07;3.70;;;0.60;;
21507;SDS011;10915;54.352;9.074;2022-09-02T16:51:33;2.97;;;0.90;;
21507;SDS011;10915;54.352;9.074;2022-09-02T16:54:00;3.40;;;0.57;;
21507;SDS011;10915;54.352;9.074;2022-09-02T16:56:27;4.77;;;0.90;;
21507;SDS011;10915;54.352;9.074;2022-09-02T16:58:54;2.10;;;0.70;;
21507;SDS011;10915;54.352;9.074;2022-09-02T17:01:23;2.20;;;0.80;;
21507;SDS011;10915;54.352;9.074;2022-09-02T17:03:48;2.00;;;0.70;;
21507;SDS011;10915;54.352;9.074;2022-09-02T17:06:15;2.17;;;0.70;;
21507;SDS011;10915;54.352;9.074;2022-09-02T17:08:41;1.43;;;0.77;;
21507;SDS011;10915;54.352;9.074;2022-09-02T17:14:20;1.73;;;0.60;;
21507;SDS011;10915;54.352;9.074;2022-09-02T17:16:48;3.77;;;0.70;;
21507;SDS011;10915;54.352;9.074;2022-09-02T17:19:15;0.80;;;0.57;;
21507;SDS011;10915;54.352;9.074;2022-09-02T17:21:45;3.30;;;0.70;;